Time;durP1;ratioP1;P1;durP2;ratioP2;P2;SDS_P1;SDS_P2;PMS_P1;PMS_P2;Temp;Humidity;BMP_temperature;BMP_pressure;BME280_temperature;BME280_humidity;BME280_pressure;Samples;Min_cycle;Max_cycle;Signal;HPM_P1;HPM_P2
2022/12/24 00:01:08;;;;;;;51.40;21.15;;;6.10;99.90;;;;;;5032552;28;20513;-70
2022/12/24 00:03:36;;;;;;;42.88;19.88;;;6.10;99.90;;;;;;5039687;28;20045;-69
2022/12/24 00:06:12;;;;;;;46.60;20.60;;;6.10;99.90;;;;;;5045905;28;20075;-70
2022/12/24 00:08:40;;;;;;;45.45;20.33;;;6.10;99.90;;;;;;5077361;28;20053;-69
2022/12/24 00:11:06;;;;;;;50.13;21.15;;;6.10;99.90;;;;;;5047605;28;20052;-74
2022/12/24 00:13:32;;;;;;;51.08;19.23;;;6.00;99.90;;;;;;5038039;28;20050;-70
2022/12/24 00:15:59;;;;;;;55.97;22.35;;;6.10;99.90;;;;;;5052196;28;20052;-70
2022/12/24 00:18:25;;;;;;;57.80;23.45;;;6.10;99.90;;;;;;5048092;28;20045;-69
2022/12/24 00:20:50;;;;;;;59.15;23.02;;;6.10;99.90;;;;;;5041379;28;20048;-69
2022/12/24 00:23:17;;;;;;;54.85;22.92;;;6.10;99.90;;;;;;5040237;28;20045;-70
2022/12/24 00:25:43;;;;;;;57.75;21.83;;;6.00;99.90;;;;;;5054259;28;20406;-69
2022/12/24 00:28:09;;;;;;;60.85;22.33;;;6.10;99.90;;;;;;5060887;28;20055;-69
2022/12/24 00:30:37;;;;;;;49.85;21.25;;;6.10;99.90;;;;;;5052364;28;20458;-69
2022/12/24 00:33:05;;;;;;;51.00;21.98;;;6.10;99.90;;;;;;5051938;28;20098;-70
2022/12/24 00:35:33;;;;;;;54.28;22.00;;;6.10;99.90;;;;;;5051689;28;20057;-69
2022/12/24 00:37:59;;;;;;;48.70;21.27;;;6.10;99.90;;;;;;5053373;28;20048;-70
2022/12/24 00:40:24;;;;;;;54.63;22.88;;;6.10;99.90;;;;;;5050253;28;20350;-70
2022/12/24 00:42:50;;;;;;;52.65;21.05;;;6.10;99.90;;;;;;5047206;28;20145;-70
2022/12/24 00:45:16;;;;;;;50.22;22.10;;;6.10;99.90;;;;;;5037300;28;20057;-69
2022/12/24 00:47:41;;;;;;;52.08;23.00;;;6.10;99.90;;;;;;5050869;28;20045;-71
2022/12/24 00:50:08;;;;;;;47.63;21.65;;;6.10;99.90;;;;;;5042014;28;20402;-69
2022/12/24 00:52:34;;;;;;;48.53;21.92;;;6.10;99.90;;;;;;5040088;28;20037;-70
2022/12/24 00:54:59;;;;;;;55.22;22.48;;;6.10;99.90;;;;;;5033897;28;20049;-70
2022/12/24 00:57:25;;;;;;;51.80;22.20;;;6.00;99.90;;;;;;5046288;28;20052;-70
2022/12/24 00:59:51;;;;;;;48.72;20.73;;;6.10;99.90;;;;;;5035090;28;20125;-69
2022/12/24 01:02:16;;;;;;;55.47;22.50;;;6.10;99.90;;;;;;5049848;28;20044;-70
2022/12/24 01:07:26;;;;;;;50.60;21.75;;;6.10;99.90;;;;;;5037426;28;20045;-69
2022/12/24 01:09:52;;;;;;;53.20;21.77;;;6.10;99.90;;;;;;5035266;28;20141;-68
2022/12/24 01:12:18;;;;;;;53.25;21.73;;;6.00;99.90;;;;;;5033472;28;20041;-70
2022/12/24 01:14:44;;;;;;;54.17;21.77;;;6.10;99.90;;;;;;5045327;28;20051;-68
2022/12/24 01:17:09;;;;;;;51.53;21.63;;;6.10;99.90;;;;;;5039235;28;20041;-70
2022/12/24 01:19:35;;;;;;;50.13;20.77;;;6.10;99.90;;;;;;5050607;28;20177;-68
2022/12/24 01:22:01;;;;;;;61.13;21.52;;;6.10;99.90;;;;;;5032970;28;20041;-69
2022/12/24 01:24:27;;;;;;;50.47;22.33;;;6.10;99.90;;;;;;5040625;28;20059;-69
2022/12/24 01:26:52;;;;;;;42.95;19.38;;;6.10;99.90;;;;;;5052326;28;20132;-70
2022/12/24 01:29:18;;;;;;;51.28;22.38;;;6.10;99.90;;;;;;5053175;28;20041;-71
2022/12/24 01:31:44;;;;;;;58.45;22.25;;;6.10;99.90;;;;;;5052736;28;20528;-69
2022/12/24 01:34:10;;;;;;;48.72;21.58;;;6.10;99.90;;;;;;5052234;28;20049;-69
2022/12/24 01:36:36;;;;;;;51.45;22.45;;;6.10;99.90;;;;;;5050568;28;20052;-69
2022/12/24 01:39:02;;;;;;;54.60;22.52;;;6.20;99.90;;;;;;5052678;28;20099;-70
2022/12/24 01:44:15;;;;;;;53.40;21.38;;;6.10;99.90;;;;;;5052377;28;20060;-69
2022/12/24 01:46:42;;;;;;;55.83;22.90;;;6.10;99.90;;;;;;5050749;28;20045;-68
2022/12/24 01:49:12;;;;;;;52.38;20.77;;;6.10;99.90;;;;;;5050733;28;20040;-69
2022/12/24 01:51:51;;;;;;;61.22;23.98;;;6.10;99.90;;;;;;5081493;28;20382;-69
2022/12/24 01:54:24;;;;;;;56.78;23.88;;;6.20;99.90;;;;;;5050098;28;20379;-72
2022/12/24 01:57:19;;;;;;;50.17;21.08;;;6.10;99.90;;;;;;5051943;28;20115;-69
2022/12/24 01:59:50;;;;;;;52.67;24.20;;;6.10;99.90;;;;;;5051470;28;20124;-69
2022/12/24 02:02:17;;;;;;;58.88;24.05;;;6.10;99.90;;;;;;5084380;28;20447;-69
2022/12/24 02:04:50;;;;;;;54.38;24.25;;;6.20;99.90;;;;;;5050362;28;20493;-69
2022/12/24 02:07:15;;;;;;;55.83;22.58;;;6.10;99.90;;;;;;5050561;28;20053;-69
2022/12/24 02:09:41;;;;;;;55.38;21.77;;;6.20;99.90;;;;;;5049366;28;20056;-69
2022/12/24 02:12:08;;;;;;;52.60;23.23;;;6.10;99.90;;;;;;5061958;28;20045;-68
2022/12/24 02:14:34;;;;;;;50.42;22.02;;;6.20;99.90;;;;;;5051087;28;20045;-69
2022/12/24 02:17:16;;;;;;;63.30;25.23;;;6.20;99.90;;;;;;5051284;28;20053;-68
2022/12/24 02:20:06;;;;;;;59.90;24.92;;;6.20;99.90;;;;;;5049296;28;20118;-69
2022/12/24 02:22:35;;;;;;;65.60;25.52;;;6.20;99.90;;;;;;5047670;28;20064;-68
2022/12/24 02:25:14;;;;;;;61.60;25.70;;;6.20;99.90;;;;;;5051068;28;20087;-69
2022/12/24 02:27:56;;;;;;;62.83;25.40;;;6.20;99.90;;;;;;5036582;28;20107;-69
2022/12/24 02:30:29;;;;;;;64.03;25.23;;;6.10;99.90;;;;;;5050555;28;20407;-74
2022/12/24 02:33:22;;;;;;;62.90;24.60;;;6.20;99.90;;;;;;5056706;28;20099;-69
2022/12/24 02:36:00;;;;;;;68.07;25.48;;;6.10;99.90;;;;;;5033312;28;20059;-69
2022/12/24 02:38:51;;;;;;;61.60;24.52;;;6.20;99.90;;;;;;5049086;28;20045;-69
2022/12/24 02:42:04;;;;;;;64.47;23.88;;;6.20;99.90;;;;;;5049545;28;20478;-69
2022/12/24 02:44:21;;;;;;;61.10;24.75;;;6.20;99.90;;;;;;5047688;28;20084;-69
2022/12/24 02:46:48;;;;;;;58.10;24.25;;;6.20;99.90;;;;;;5050097;28;20055;-69
2022/12/24 02:49:14;;;;;;;73.82;27.98;;;6.20;99.90;;;;;;5050723;28;20099;-70
2022/12/24 02:51:39;;;;;;;68.18;26.52;;;6.20;99.90;;;;;;5050128;28;20498;-70
2022/12/24 02:54:05;;;;;;;68.30;26.33;;;6.20;99.90;;;;;;5050260;28;20048;-70
2022/12/24 02:57:12;;;;;;;64.45;25.38;;;6.30;99.90;;;;;;5050200;28;20044;-70
2022/12/24 02:59:52;;;;;;;69.60;26.10;;;6.20;99.90;;;;;;5047459;28;20136;-69
2022/12/24 03:02:30;;;;;;;64.25;25.52;;;6.20;99.90;;;;;;5047063;28;20126;-69
2022/12/24 03:05:01;;;;;;;67.43;26.38;;;6.30;99.90;;;;;;5061581;28;20041;-69
2022/12/24 03:07:43;;;;;;;69.85;26.52;;;6.20;99.90;;;;;;5032857;28;20045;-74
2022/12/24 03:10:09;;;;;;;67.60;26.92;;;6.20;99.90;;;;;;5049253;28;20059;-69
2022/12/24 03:12:45;;;;;;;60.42;25.80;;;6.30;99.90;;;;;;5048440;28;20079;-68
2022/12/24 03:15:16;;;;;;;54.00;23.08;;;6.30;99.90;;;;;;5051518;28;20045;-68
2022/12/24 03:17:45;;;;;;;56.50;24.67;;;6.40;99.90;;;;;;5050312;28;20053;-68
2022/12/24 03:20:16;;;;;;;69.03;26.25;;;6.40;99.90;;;;;;5049216;28;20387;-70
2022/12/24 03:22:42;;;;;;;65.78;24.98;;;6.40;99.90;;;;;;5031995;28;20041;-69
2022/12/24 03:25:08;;;;;;;60.72;25.65;;;6.40;99.90;;;;;;5061188;28;20036;-69
2022/12/24 03:27:36;;;;;;;67.57;25.98;;;6.40;99.90;;;;;;5049182;28;20049;-69
2022/12/24 03:30:07;;;;;;;60.35;25.17;;;6.50;99.90;;;;;;5049449;28;20056;-69
2022/12/24 03:32:33;;;;;;;57.38;25.38;;;6.50;99.90;;;;;;5049577;28;20076;-69
2022/12/24 03:34:58;;;;;;;59.97;25.90;;;6.50;99.90;;;;;;5051048;28;20514;-69
2022/12/24 03:37:25;;;;;;;57.67;25.42;;;6.50;99.90;;;;;;5050120;28;20057;-69
2022/12/24 03:39:51;;;;;;;48.80;22.80;;;6.60;99.90;;;;;;5032305;28;20049;-69
2022/12/24 03:42:16;;;;;;;51.10;23.73;;;6.60;99.90;;;;;;5048493;28;20454;-69
2022/12/24 03:44:42;;;;;;;57.00;24.00;;;6.70;99.90;;;;;;5049055;28;20056;-68
2022/12/24 03:47:08;;;;;;;53.63;23.38;;;6.50;99.90;;;;;;5054386;28;20040;-69
2022/12/24 03:49:33;;;;;;;50.97;22.30;;;6.70;99.90;;;;;;5049452;28;20052;-69
2022/12/24 03:51:59;;;;;;;45.72;21.65;;;6.80;99.90;;;;;;5048828;28;20041;-69
2022/12/24 03:54:25;;;;;;;38.28;19.42;;;6.80;99.90;;;;;;5032306;28;20045;-69
2022/12/24 03:56:50;;;;;;;41.35;19.48;;;6.90;99.90;;;;;;5050669;28;20123;-70
2022/12/24 03:59:16;;;;;;;38.15;19.45;;;6.90;99.90;;;;;;5056047;28;20048;-69
2022/12/24 04:01:42;;;;;;;48.30;18.50;;;6.90;99.90;;;;;;5031796;28;20064;-70
2022/12/24 04:04:07;;;;;;;36.10;15.20;;;7.00;99.90;;;;;;5048547;28;20048;-69
2022/12/24 04:06:33;;;;;;;38.60;16.20;;;7.00;99.90;;;;;;5054978;28;20540;-68
2022/12/24 04:09:03;;;;;;;34.47;14.45;;;7.10;99.90;;;;;;5048716;28;20053;-69
2022/12/24 04:11:30;;;;;;;36.03;15.18;;;7.10;99.90;;;;;;5049823;28;20053;-69
2022/12/24 04:13:56;;;;;;;33.30;13.60;;;7.10;99.90;;;;;;5070980;28;20140;-69
2022/12/24 04:16:21;;;;;;;34.63;13.32;;;7.30;99.90;;;;;;5053582;28;20136;-68
2022/12/24 04:18:47;;;;;;;28.52;13.20;;;7.10;99.90;;;;;;5085181;28;20041;-70
2022/12/24 04:21:13;;;;;;;28.90;13.15;;;7.10;99.90;;;;;;5053401;28;20052;-69
2022/12/24 04:23:40;;;;;;;30.83;13.93;;;7.10;99.90;;;;;;5068038;28;20433;-74
2022/12/24 04:26:07;;;;;;;25.33;12.73;;;7.10;99.90;;;;;;5063234;28;20044;-68
2022/12/24 04:28:34;;;;;;;29.73;12.40;;;7.20;99.90;;;;;;5067211;28;20129;-69
2022/12/24 04:31:01;;;;;;;28.17;12.45;;;7.20;99.90;;;;;;5052656;28;20041;-69
2022/12/24 04:33:27;;;;;;;32.60;11.25;;;7.30;99.90;;;;;;5051617;28;20065;-68
2022/12/24 04:35:53;;;;;;;31.80;10.68;;;7.20;99.90;;;;;;5052219;28;20049;-69
2022/12/24 04:38:19;;;;;;;30.50;12.07;;;7.20;99.90;;;;;;5052954;28;20048;-69
2022/12/24 04:40:45;;;;;;;31.92;12.15;;;7.30;99.90;;;;;;5052333;28;20056;-69
2022/12/24 04:43:10;;;;;;;45.55;12.23;;;7.30;99.90;;;;;;5051901;28;20460;-69
2022/12/24 04:45:36;;;;;;;39.65;11.95;;;7.30;99.90;;;;;;5051490;28;20041;-70
2022/12/24 04:48:02;;;;;;;41.38;12.13;;;7.30;99.90;;;;;;5053619;28;20105;-69
2022/12/24 04:50:27;;;;;;;45.75;12.68;;;7.40;99.90;;;;;;5067508;28;20502;-68
2022/12/24 04:52:53;;;;;;;37.70;11.90;;;7.40;99.90;;;;;;5052126;28;20367;-69
2022/12/24 04:55:19;;;;;;;41.40;9.75;;;7.50;99.90;;;;;;5046346;28;20103;-68
2022/12/24 04:57:44;;;;;;;45.90;9.48;;;7.50;99.90;;;;;;5046876;28;20437;-73
2022/12/24 05:00:11;;;;;;;45.85;8.68;;;7.50;99.90;;;;;;5052877;28;20045;-69
2022/12/24 05:02:36;;;;;;;36.08;7.75;;;7.60;99.90;;;;;;5046686;28;20073;-70
2022/12/24 05:05:02;;;;;;;37.75;7.57;;;7.60;99.90;;;;;;5047433;28;20120;-69
2022/12/24 05:07:28;;;;;;;33.53;6.60;;;7.50;99.90;;;;;;5050660;28;20124;-68
2022/12/24 05:09:53;;;;;;;31.95;6.70;;;7.50;99.90;;;;;;5051168;28;20041;-68
2022/12/24 05:12:19;;;;;;;39.83;7.03;;;7.40;99.90;;;;;;5040166;28;20147;-69
2022/12/24 05:14:45;;;;;;;45.63;7.88;;;7.50;99.90;;;;;;5039718;28;20130;-74
2022/12/24 05:17:10;;;;;;;37.13;6.88;;;7.40;99.90;;;;;;5034533;28;20048;-69
2022/12/24 05:19:36;;;;;;;42.17;7.03;;;7.50;99.90;;;;;;5037105;28;20049;-69
2022/12/24 05:27:30;;;;;;;36.97;6.80;;;7.50;99.90;;;;;;5043457;28;20056;-68
2022/12/24 05:29:56;;;;;;;44.17;8.35;;;7.50;99.90;;;;;;5038555;28;20052;-68
2022/12/24 05:32:21;;;;;;;48.30;7.72;;;7.50;99.90;;;;;;5074369;28;20383;-68
2022/12/24 05:34:47;;;;;;;43.60;7.40;;;7.60;99.90;;;;;;5038715;28;20053;-73
2022/12/24 05:37:13;;;;;;;39.05;6.55;;;7.60;99.90;;;;;;5083406;28;20091;-69
2022/12/24 05:39:39;;;;;;;44.60;7.45;;;7.60;99.90;;;;;;5046180;28;20051;-70
2022/12/24 05:42:04;;;;;;;50.85;7.68;;;7.60;99.90;;;;;;5083072;28;20402;-68
2022/12/24 05:44:30;;;;;;;42.65;6.93;;;7.60;99.90;;;;;;5046135;28;20401;-68
2022/12/24 05:46:56;;;;;;;36.85;6.90;;;7.60;99.90;;;;;;5037823;28;20135;-68
2022/12/24 05:49:21;;;;;;;51.58;7.22;;;7.60;99.90;;;;;;5025900;28;20368;-69
2022/12/24 05:51:47;;;;;;;39.22;6.53;;;7.60;99.90;;;;;;5055616;28;20123;-69
2022/12/24 05:54:13;;;;;;;41.08;7.18;;;7.60;99.90;;;;;;5043555;28;20395;-69
2022/12/24 05:56:38;;;;;;;49.50;9.65;;;7.60;99.90;;;;;;5038712;28;20079;-68
2022/12/24 05:59:04;;;;;;;43.13;7.32;;;7.70;99.90;;;;;;5060934;28;20052;-69
2022/12/24 06:01:30;;;;;;;57.15;9.18;;;7.60;99.90;;;;;;5048425;28;20045;-69
2022/12/24 06:03:56;;;;;;;47.47;8.52;;;7.70;99.90;;;;;;5037467;28;20212;-69
2022/12/24 06:06:25;;;;;;;55.22;10.10;;;7.70;99.90;;;;;;5051032;28;20049;-69
2022/12/24 06:08:53;;;;;;;45.55;7.30;;;7.70;99.90;;;;;;5049955;28;20457;-69
2022/12/24 06:11:21;;;;;;;54.53;10.52;;;7.70;99.90;;;;;;5050706;28;20148;-69
2022/12/24 06:13:47;;;;;;;54.10;10.20;;;7.70;99.90;;;;;;5061326;28;20440;-68
2022/12/24 06:16:16;;;;;;;45.13;9.00;;;7.70;99.90;;;;;;5050364;28;20102;-68
2022/12/24 06:18:42;;;;;;;51.33;8.27;;;7.60;99.90;;;;;;5049850;28;20041;-69
2022/12/24 06:21:08;;;;;;;38.33;7.70;;;7.70;99.90;;;;;;5050462;28;20056;-69
2022/12/24 06:23:36;;;;;;;43.00;7.80;;;7.70;99.90;;;;;;5058705;28;20057;-68
2022/12/24 06:26:04;;;;;;;43.88;6.80;;;7.70;99.90;;;;;;5050815;28;20053;-69
2022/12/24 06:28:32;;;;;;;39.92;7.00;;;7.70;99.90;;;;;;5050906;28;20120;-68
2022/12/24 06:30:59;;;;;;;53.88;7.90;;;7.70;99.90;;;;;;5048876;28;20041;-72
2022/12/24 06:33:25;;;;;;;51.13;7.93;;;7.70;99.90;;;;;;5055781;28;20136;-68
2022/12/24 06:35:51;;;;;;;65.28;8.63;;;7.70;99.90;;;;;;5050816;28;20147;-68
2022/12/24 06:38:17;;;;;;;47.08;7.35;;;7.70;99.90;;;;;;5050156;28;20649;-69
2022/12/24 06:40:45;;;;;;;47.15;7.43;;;7.70;99.90;;;;;;5050414;28;20535;-68
2022/12/24 06:43:11;;;;;;;49.75;7.90;;;7.70;99.90;;;;;;5051123;28;20042;-69
2022/12/24 06:45:37;;;;;;;43.72;7.43;;;7.70;99.90;;;;;;5050418;28;20060;-69
2022/12/24 06:48:04;;;;;;;44.83;7.95;;;7.70;99.90;;;;;;5048844;28;20057;-69
2022/12/24 06:50:29;;;;;;;42.55;6.90;;;7.30;99.90;;;;;;5050235;28;20045;-70
2022/12/24 06:52:55;;;;;;;46.10;8.05;;;7.80;99.90;;;;;;5049020;28;20045;-69
2022/12/24 06:55:21;;;;;;;49.30;8.13;;;7.80;99.90;;;;;;5058254;28;20041;-68
2022/12/24 06:57:46;;;;;;;42.85;6.53;;;7.70;99.90;;;;;;5066136;28;20043;-68
2022/12/24 07:00:13;;;;;;;40.50;7.85;;;7.80;99.90;;;;;;5065694;28;20057;-68
2022/12/24 07:02:43;;;;;;;34.08;6.30;;;7.80;99.90;;;;;;5049004;28;20514;-69
2022/12/24 07:05:11;;;;;;;39.45;6.22;;;7.80;99.90;;;;;;5050829;28;20094;-69
2022/12/24 07:07:41;;;;;;;51.42;7.63;;;7.80;99.90;;;;;;5049065;28;20621;-69
2022/12/24 07:10:09;;;;;;;48.80;6.60;;;7.80;99.90;;;;;;5035003;28;20494;-68
2022/12/24 07:12:35;;;;;;;56.33;7.70;;;7.80;99.90;;;;;;5047633;28;20040;-69
2022/12/24 07:15:01;;;;;;;48.10;7.90;;;7.80;99.90;;;;;;5049132;28;20051;-74
2022/12/24 07:17:27;;;;;;;47.03;6.75;;;7.80;99.90;;;;;;5046015;28;20051;-68
2022/12/24 07:19:52;;;;;;;40.45;8.18;;;7.80;99.90;;;;;;5044633;28;20117;-68
2022/12/24 07:22:18;;;;;;;44.60;6.45;;;7.80;99.90;;;;;;5040041;28;20108;-68
2022/12/24 07:24:44;;;;;;;40.10;6.90;;;7.90;99.90;;;;;;5049885;28;20041;-69
2022/12/24 07:27:09;;;;;;;50.92;7.22;;;7.90;99.90;;;;;;5056304;28;20049;-68
2022/12/24 07:29:35;;;;;;;41.75;6.75;;;7.90;99.90;;;;;;5048931;28;20154;-69
2022/12/24 07:32:01;;;;;;;49.92;7.32;;;7.90;99.90;;;;;;5050010;28;20099;-68
2022/12/24 07:34:26;;;;;;;39.55;8.15;;;7.80;99.90;;;;;;5031187;28;20053;-68
2022/12/24 07:36:52;;;;;;;43.03;6.85;;;7.80;99.90;;;;;;5051268;28;20061;-69
2022/12/24 07:39:18;;;;;;;34.13;5.80;;;7.80;99.90;;;;;;5049382;28;20048;-69
2022/12/24 07:41:43;;;;;;;49.53;9.40;;;7.70;99.90;;;;;;5047684;28;20111;-68
2022/12/24 07:44:13;;;;;;;47.80;6.80;;;7.70;99.90;;;;;;5042455;28;20045;-69
2022/12/24 07:46:39;;;;;;;43.25;6.47;;;7.70;99.90;;;;;;5052911;28;20041;-69
2022/12/24 07:49:06;;;;;;;40.67;7.47;;;7.60;99.90;;;;;;5046132;28;20073;-68
2022/12/24 07:51:31;;;;;;;38.33;7.00;;;7.50;99.90;;;;;;5044951;28;20045;-69
2022/12/24 07:53:57;;;;;;;40.45;5.82;;;7.60;99.90;;;;;;5045778;28;20416;-69
2022/12/24 07:56:23;;;;;;;51.22;8.50;;;7.60;99.90;;;;;;5051460;28;20059;-69
2022/12/24 07:58:52;;;;;;;41.90;6.65;;;7.60;99.90;;;;;;5048673;28;20045;-69
2022/12/24 08:01:18;;;;;;;44.47;7.38;;;7.50;99.90;;;;;;5079711;28;20132;-69
2022/12/24 08:03:44;;;;;;;41.92;7.80;;;7.50;99.90;;;;;;5042729;28;20095;-72
2022/12/24 08:06:10;;;;;;;47.15;7.15;;;7.60;99.90;;;;;;5047160;28;20124;-74
2022/12/24 08:08:36;;;;;;;37.85;6.47;;;7.60;99.90;;;;;;5053779;28;20057;-68
2022/12/24 08:11:05;;;;;;;46.90;8.23;;;7.60;99.90;;;;;;5053077;28;20059;-72
2022/12/24 08:13:31;;;;;;;50.22;7.55;;;7.60;99.90;;;;;;5051778;28;20045;-69
2022/12/24 08:15:57;;;;;;;37.08;6.95;;;7.60;99.90;;;;;;5053260;28;20044;-68
2022/12/24 08:18:23;;;;;;;46.97;7.53;;;7.70;99.90;;;;;;5048022;28;20060;-69
2022/12/24 08:20:48;;;;;;;42.85;6.85;;;7.70;99.90;;;;;;5043104;28;20114;-68
2022/12/24 08:23:15;;;;;;;49.08;7.03;;;7.60;99.90;;;;;;5022100;28;20057;-68
2022/12/24 08:25:46;;;;;;;43.55;7.35;;;7.70;99.90;;;;;;5033672;28;20041;-68
2022/12/24 08:28:14;;;;;;;44.03;6.53;;;7.70;99.90;;;;;;5082310;28;20060;-74
2022/12/24 08:30:41;;;;;;;51.65;8.35;;;7.70;99.90;;;;;;5033529;28;20168;-68
2022/12/24 08:33:07;;;;;;;37.10;7.72;;;7.70;99.90;;;;;;5031699;28;20069;-69
2022/12/24 08:35:32;;;;;;;47.78;8.00;;;7.80;99.90;;;;;;5067547;28;20049;-68
2022/12/24 08:37:58;;;;;;;54.85;9.23;;;7.80;99.90;;;;;;5051143;28;20158;-69
2022/12/24 08:40:24;;;;;;;45.40;8.82;;;7.80;99.90;;;;;;5048766;28;20045;-68
2022/12/24 08:42:50;;;;;;;46.53;8.18;;;7.80;99.90;;;;;;5040848;28;20041;-68
2022/12/24 08:45:16;;;;;;;51.83;8.25;;;7.80;99.90;;;;;;5036374;28;20121;-68
2022/12/24 08:47:41;;;;;;;45.53;8.75;;;7.90;99.90;;;;;;5037994;28;20053;-68
2022/12/24 08:50:08;;;;;;;52.80;8.48;;;7.90;99.90;;;;;;5053583;28;20440;-72
2022/12/24 08:52:35;;;;;;;46.03;9.15;;;8.00;99.90;;;;;;5032131;28;20110;-68
2022/12/24 08:55:00;;;;;;;45.20;7.38;;;8.00;99.90;;;;;;5046768;28;20059;-68
2022/12/24 08:57:26;;;;;;;44.45;9.05;;;8.00;99.90;;;;;;5082512;28;20064;-69
2022/12/24 08:59:52;;;;;;;46.90;8.27;;;8.00;99.90;;;;;;5082855;28;20144;-67
2022/12/24 09:02:18;;;;;;;50.13;7.97;;;8.00;99.90;;;;;;5047880;28;20100;-69
2022/12/24 09:04:44;;;;;;;42.50;7.30;;;8.00;99.90;;;;;;5047118;28;20048;-69
2022/12/24 09:07:10;;;;;;;35.42;6.93;;;8.00;99.90;;;;;;5051655;28;20397;-69
2022/12/24 09:09:36;;;;;;;41.17;7.95;;;8.10;99.90;;;;;;5051567;28;20049;-71
2022/12/24 09:12:05;;;;;;;43.92;7.97;;;8.10;99.90;;;;;;5051491;28;20049;-69
2022/12/24 09:14:30;;;;;;;52.97;7.45;;;8.10;99.90;;;;;;5039779;28;20148;-69
2022/12/24 09:16:56;;;;;;;37.45;7.10;;;8.10;99.90;;;;;;5050164;28;20580;-71
2022/12/24 09:19:22;;;;;;;44.13;7.07;;;8.10;99.90;;;;;;5047113;28;20099;-68
2022/12/24 09:21:49;;;;;;;43.95;8.38;;;8.20;99.90;;;;;;5043872;28;20088;-68
2022/12/24 09:24:14;;;;;;;38.70;7.25;;;8.10;99.90;;;;;;5048331;28;20375;-68
2022/12/24 09:26:40;;;;;;;41.08;6.90;;;8.20;99.90;;;;;;5043773;28;20247;-70
2022/12/24 09:29:06;;;;;;;49.72;7.57;;;8.20;99.90;;;;;;5020933;28;20072;-68
2022/12/24 09:31:32;;;;;;;43.53;6.82;;;8.30;99.90;;;;;;5039844;28;20049;-69
2022/12/24 09:33:58;;;;;;;42.80;6.90;;;8.30;99.90;;;;;;5074468;28;20080;-67
2022/12/24 09:36:24;;;;;;;42.80;6.88;;;8.30;99.90;;;;;;5038975;28;20155;-68
2022/12/24 09:38:50;;;;;;;46.78;8.00;;;8.30;99.90;;;;;;5030349;28;20121;-71
2022/12/24 09:41:37;;;;;;;41.80;7.15;;;8.30;99.90;;;;;;5051257;28;20131;-67
2022/12/24 09:44:18;;;;;;;39.88;7.75;;;8.30;99.90;;;;;;5057180;28;20047;-72
2022/12/24 09:46:46;;;;;;;47.28;7.45;;;8.30;99.90;;;;;;5044600;28;20080;-71
2022/12/24 09:49:21;;;;;;;39.97;6.90;;;8.40;99.90;;;;;;5039906;28;20132;-68
2022/12/24 09:52:01;;;;;;;35.80;6.88;;;8.40;99.90;;;;;;5080339;28;20045;-68
2022/12/24 09:54:31;;;;;;;44.28;7.13;;;8.40;99.90;;;;;;5042878;28;20072;-69
2022/12/24 09:57:03;;;;;;;46.10;8.88;;;8.50;99.90;;;;;;5043883;28;20049;-69
2022/12/24 09:59:42;;;;;;;36.58;6.38;;;8.40;99.90;;;;;;5046082;28;20045;-68
2022/12/24 10:02:14;;;;;;;37.85;7.22;;;8.40;99.90;;;;;;5049716;28;20379;-67
2022/12/24 10:04:41;;;;;;;38.17;7.00;;;8.40;99.90;;;;;;5050185;28;20056;-68
2022/12/24 10:07:46;;;;;;;40.70;7.63;;;8.40;99.90;;;;;;5051510;28;20048;-69
2022/12/24 10:10:36;;;;;;;41.47;7.35;;;8.40;99.90;;;;;;5038709;28;20052;-68
2022/12/24 10:13:07;;;;;;;43.65;7.65;;;8.40;99.90;;;;;;5068005;28;20128;-68
2022/12/24 10:15:42;;;;;;;43.45;7.38;;;8.50;99.90;;;;;;5051443;28;20132;-67
2022/12/24 10:18:18;;;;;;;45.85;7.57;;;8.50;99.90;;;;;;5037404;28;20049;-67
2022/12/24 10:20:51;;;;;;;32.95;6.50;;;8.60;99.90;;;;;;5048098;28;20405;-67
2022/12/24 10:23:37;;;;;;;45.83;8.43;;;8.70;99.90;;;;;;5043484;28;20356;-68
2022/12/24 10:26:19;;;;;;;44.67;7.05;;;8.60;99.90;;;;;;5038811;28;20057;-67
2022/12/24 10:29:00;;;;;;;42.92;7.35;;;8.70;99.90;;;;;;5039939;28;20090;-70
2022/12/24 10:31:30;;;;;;;35.92;7.65;;;8.60;99.90;;;;;;5045784;28;20052;-70
2022/12/24 10:34:06;;;;;;;43.80;6.85;;;8.80;99.90;;;;;;5056370;28;20061;-68
2022/12/24 10:36:32;;;;;;;43.05;7.15;;;8.80;99.90;;;;;;5039309;28;20081;-66
2022/12/24 10:38:58;;;;;;;36.47;6.78;;;8.90;99.90;;;;;;5067566;28;20356;-70
2022/12/24 10:41:28;;;;;;;37.15;5.60;;;8.90;99.90;;;;;;5042231;28;20045;-67
2022/12/24 10:43:55;;;;;;;41.25;7.10;;;8.90;99.90;;;;;;5044573;28;20092;-67
2022/12/24 10:46:34;;;;;;;39.78;8.38;;;8.90;99.90;;;;;;5047323;28;20052;-67
2022/12/24 10:49:25;;;;;;;41.53;6.43;;;9.00;99.90;;;;;;5047195;28;20041;-67
2022/12/24 10:51:58;;;;;;;44.30;8.07;;;9.00;99.90;;;;;;5030315;28;20072;-68
2022/12/24 10:54:26;;;;;;;48.17;8.27;;;9.00;99.90;;;;;;5079428;28;20049;-66
2022/12/24 10:57:01;;;;;;;41.05;6.78;;;9.00;99.90;;;;;;5047431;28;20110;-67
2022/12/24 10:59:30;;;;;;;29.27;5.75;;;9.10;99.90;;;;;;5032846;28;20390;-66
2022/12/24 11:01:57;;;;;;;39.00;7.18;;;9.10;99.90;;;;;;5045658;28;20076;-66
2022/12/24 11:04:29;;;;;;;38.55;7.13;;;9.10;99.90;;;;;;5044554;28;20077;-67
2022/12/24 11:07:03;;;;;;;32.95;6.85;;;9.10;99.90;;;;;;5049828;28;20103;-66
2022/12/24 11:09:39;;;;;;;47.95;7.25;;;9.20;99.90;;;;;;5050903;28;20055;-67
2022/12/24 11:12:15;;;;;;;30.60;6.03;;;9.20;99.90;;;;;;5050497;28;20547;-66
2022/12/24 11:14:41;;;;;;;42.20;6.60;;;9.20;99.90;;;;;;5036209;28;20053;-66
2022/12/24 11:17:21;;;;;;;31.23;6.72;;;9.20;99.90;;;;;;5050389;28;20037;-68
2022/12/24 11:19:49;;;;;;;31.30;6.97;;;9.20;99.90;;;;;;5082782;28;20045;-66
2022/12/24 11:22:25;;;;;;;33.67;5.40;;;9.20;99.90;;;;;;5047223;28;20049;-67
2022/12/24 11:25:04;;;;;;;37.00;7.15;;;9.20;99.90;;;;;;5044402;28;20080;-66
2022/12/24 11:27:41;;;;;;;41.20;7.90;;;9.20;99.90;;;;;;5048068;28;20033;-67
2022/12/24 11:30:28;;;;;;;33.00;6.45;;;9.20;99.90;;;;;;5046904;28;20141;-65
2022/12/24 11:33:00;;;;;;;31.85;7.25;;;9.20;99.90;;;;;;5031456;28;20198;-65
2022/12/24 11:35:28;;;;;;;34.17;6.20;;;9.20;99.90;;;;;;5045027;28;20138;-68
2022/12/24 11:37:59;;;;;;;31.77;5.57;;;9.30;99.90;;;;;;5046791;28;20467;-66
2022/12/24 11:40:40;;;;;;;27.60;6.45;;;9.30;99.90;;;;;;5045535;28;20394;-66
2022/12/24 11:43:15;;;;;;;29.92;5.53;;;9.30;99.90;;;;;;5045320;28;20147;-67
2022/12/24 11:45:49;;;;;;;22.27;4.90;;;9.30;99.90;;;;;;5044005;28;20050;-68
2022/12/24 11:48:32;;;;;;;34.50;7.00;;;9.30;99.90;;;;;;5046787;28;20124;-68
2022/12/24 11:51:05;;;;;;;28.83;5.53;;;9.30;99.90;;;;;;5045680;28;20342;-66
2022/12/24 11:53:40;;;;;;;30.52;5.32;;;9.30;99.90;;;;;;5049696;28;20080;-67
2022/12/24 11:56:26;;;;;;;24.38;5.07;;;9.40;99.90;;;;;;5053803;28;21327;-66
2022/12/24 11:58:57;;;;;;;28.85;5.97;;;9.30;99.90;;;;;;5040038;28;20049;-68
2022/12/24 12:01:38;;;;;;;25.17;5.63;;;9.30;99.90;;;;;;5036491;28;20064;-77
2022/12/24 12:04:05;;;;;;;24.70;5.03;;;9.30;99.90;;;;;;5035161;28;20084;-68
2022/12/24 12:06:48;;;;;;;20.98;5.07;;;9.40;99.90;;;;;;5044636;28;20049;-66
2022/12/24 12:09:21;;;;;;;24.52;5.88;;;9.30;99.90;;;;;;5040144;28;20059;-67
2022/12/24 12:12:13;;;;;;;28.40;6.75;;;9.40;99.90;;;;;;5036249;28;20045;-66
2022/12/24 12:15:00;;;;;;;27.00;5.95;;;9.30;99.90;;;;;;5045881;28;20052;-75
2022/12/24 12:17:34;;;;;;;22.75;6.05;;;9.30;99.90;;;;;;5044759;28;20068;-67
2022/12/24 12:20:03;;;;;;;21.23;6.17;;;9.40;99.90;;;;;;5051400;28;20510;-67
2022/12/24 12:22:41;;;;;;;25.17;5.22;;;9.40;99.90;;;;;;5039958;28;20040;-68
2022/12/24 12:25:46;;;;;;;21.65;5.72;;;9.40;99.90;;;;;;5050792;28;20041;-69
2022/12/24 12:28:22;;;;;;;23.20;5.78;;;9.40;99.90;;;;;;5037358;28;20053;-76
2022/12/24 12:31:07;;;;;;;22.88;5.07;;;9.30;99.90;;;;;;5040400;28;20052;-73
2022/12/24 12:33:40;;;;;;;22.98;5.03;;;9.30;99.90;;;;;;5034377;28;20100;-67
2022/12/24 12:36:09;;;;;;;19.15;5.35;;;9.30;99.90;;;;;;5054715;28;20630;-67
2022/12/24 12:38:35;;;;;;;24.08;5.10;;;9.30;99.90;;;;;;5044753;28;20055;-68
2022/12/24 12:41:17;;;;;;;19.10;5.13;;;9.30;99.90;;;;;;5034716;28;20399;-68
2022/12/24 12:44:25;;;;;;;21.98;4.90;;;9.30;99.90;;;;;;5050175;28;20056;-69
2022/12/24 12:47:03;;;;;;;16.98;5.18;;;9.30;99.90;;;;;;5047995;28;20045;-69
2022/12/24 12:49:52;;;;;;;25.40;5.35;;;9.40;99.90;;;;;;5046992;28;20037;-69
2022/12/24 12:52:30;;;;;;;30.02;6.60;;;9.30;99.90;;;;;;5041707;28;20474;-68
2022/12/24 12:55:26;;;;;;;28.55;6.03;;;9.40;99.90;;;;;;5052473;28;20052;-68
2022/12/24 12:57:56;;;;;;;22.15;5.00;;;9.40;99.90;;;;;;5037789;28;20351;-67
2022/12/24 13:00:22;;;;;;;25.50;5.35;;;9.40;99.90;;;;;;5044019;28;20065;-68
2022/12/24 13:03:18;;;;;;;27.00;5.10;;;9.50;99.90;;;;;;5083776;28;20136;-80
2022/12/24 13:06:03;;;;;;;22.10;5.65;;;9.50;99.90;;;;;;5045583;28;20063;-67
2022/12/24 13:09:12;;;;;;;23.05;5.28;;;9.50;99.90;;;;;;5051545;28;20405;-66